Oxford, Indiana
Current Conditions -  °F | °C
As of 11:54 PM on Sunday 19 Oct 2014 (Local Time) from KLAF Reporting Station
Clear Clear  
Wind Chill:   Ceiling: Unl
Heat Index:   Visibility: 10mi
Dew Point:   Wind: 8mph
Humidity: 83%   Direction: 210°SSW
Pressure: 30.01"   Gusts: NA
Location:  40.52°N, 87.25°W
Report Text: KLAF 200354Z AUTO 21007KT 10SM CLR 08/05 A3001 RMK AO2 SLP164 T00780050 TSNO $
Loading
Personal Weather Stations






























Interactive Weather Map
Tropical Storm Tracking
New forecast layout! Learn more

10-Day Weather Forecast

Advertisements
Track Severe Weather on mobile